Arneckeville, Texas
Current Conditions -  °F | °C
As of 9:51 AM on Saturday 25 Oct 2014 (Local Time) from KVCT Reporting Station
Clear Clear  
Wind Chill: 73°   Ceiling: Unl
Heat Index: 73°   Visibility: 10mi
Dew Point: 63°   Wind: 5mph
Humidity: 71%   Direction: 330°NNW
Pressure: 30.19"   Gusts: NA
Location:  29.0941°N, 97.191°W
Report Text: KVCT 251451Z 33004KT 10SM CLR 23/17 A3019 RMK AO2 SLP222 T02280172 51013
Loading
Personal Weather Stations






























Interactive Weather Map
Tropical Storm Tracking
New forecast layout! Learn more

10-Day Weather Forecast

Advertisements
Track Severe Weather on mobile